UNNT/OVB METAR and TAF weather

Enter ICAO airport designator
Station Type Date Time Source
UNNT METAR 2021/02/28 03:00 UTC NOAA

UNNT 280300Z 12003MPS 6000 NSC M27/M30 Q1034 R25/490155 R16/490155 NOSIG RMK QFE765/1021


Station Type Date Time Source
UNNT Decoded METAR 2021/02/28 03:00 UTC NOAA

Station name not available
Feb 27, 2021 - 10:00 PM EST / 2021.02.28 0300 UTC
Wind: from the ESE (120 degrees) at 7 MPH (6 KT):0
Visibility: 3 mile(s):0
Temperature: -16 F (-27 C)
Windchill: -32 F (-36 C):2
Dew Point: -22 F (-30 C)
Relative Humidity: 75%
Pressure (altimeter): 30.53 in. Hg (1034 hPa)
ob: UNNT 280300Z 12003MPS 6000 NSC M27/M30 Q1034 R25/490155 R16/490155 NOSIG RMK QFE765/1021
cycle: 3

Station Type Date Time Source
UNNT TAF 2021/02/28 03:24 UTC NOAA

TAF UNNT 280200Z 2803/0103 14003MPS 8000 SCT040
TEMPO 2803/2806 3000 FU BR SCT005
FM281200 10003G08MPS 6000 -SHSN BKN016CB
TEMPO 2812/0103 15006G13MPS 3000 -SHSN BKN010CB

Example: see airport list